createdAt,value
2019-05-21T00:02:18.009Z,9.400000
2019-05-21T00:04:48.765Z,9.400000
2019-05-21T00:07:19.068Z,11.400000
2019-05-21T00:09:49.316Z,11.400000
2019-05-21T00:12:19.870Z,9.200000
2019-05-21T00:14:50.304Z,9.200000
2019-05-21T00:17:20.630Z,10.500000
2019-05-21T00:19:50.974Z,10.500000
2019-05-21T00:22:21.300Z,9.900000
2019-05-21T00:24:51.802Z,9.900000
2019-05-21T00:27:22.263Z,9.800000
2019-05-21T00:29:52.592Z,9.800000
2019-05-21T00:32:22.947Z,11.000000
2019-05-21T00:34:53.485Z,11.000000
2019-05-21T00:37:23.802Z,9.000000
2019-05-21T00:39:54.140Z,9.000000
2019-05-21T00:42:24.523Z,8.000000
2019-05-21T00:44:55.000Z,8.000000
2019-05-21T00:47:25.338Z,7.400000
2019-05-21T00:49:55.690Z,7.400000
2019-05-21T00:52:26.136Z,6.300000
2019-05-21T00:54:56.467Z,6.300000
2019-05-21T00:57:26.798Z,6.600000
2019-05-21T00:59:57.139Z,6.600000
2019-05-21T01:02:27.572Z,7.100000
2019-05-21T01:05:00.633Z,7.100000
2019-05-21T01:07:31.636Z,6.200000
2019-05-21T01:10:02.289Z,6.200000
2019-05-21T01:12:32.821Z,7.100000
2019-05-21T01:15:03.143Z,7.100000
2019-05-21T01:17:33.572Z,6.500000
2019-05-21T01:20:03.920Z,6.500000
2019-05-21T01:22:34.356Z,8.500000
2019-05-21T01:25:04.693Z,8.500000
2019-05-21T01:27:35.021Z,7.600000
2019-05-21T01:30:05.460Z,7.600000
2019-05-21T01:32:35.776Z,7.300000
2019-05-21T01:35:16.631Z,7.300000
2019-05-21T01:37:47.278Z,6.100000
2019-05-21T01:40:17.523Z,6.100000
2019-05-21T01:42:47.995Z,7.600000
2019-05-21T01:45:18.303Z,7.600000
2019-05-21T01:47:48.742Z,8.400000
2019-05-21T01:50:19.149Z,8.400000
2019-05-21T01:52:49.598Z,5.900000
2019-05-21T01:55:19.959Z,5.900000
2019-05-21T01:57:50.180Z,6.700000
2019-05-21T02:00:20.533Z,6.700000
2019-05-21T02:02:50.986Z,6.300000
2019-05-21T02:05:32.712Z,6.300000
2019-05-21T02:08:08.768Z,7.000000
2019-05-21T02:10:39.135Z,7.000000
2019-05-21T02:13:09.494Z,6.600000
2019-05-21T02:15:39.808Z,6.600000
2019-05-21T02:18:10.144Z,6.000000
2019-05-21T02:20:40.552Z,6.000000
2019-05-21T02:23:10.925Z,11.100000
2019-05-21T02:25:41.374Z,11.100000
2019-05-21T02:28:11.730Z,7.100000
2019-05-21T02:30:47.192Z,7.100000
2019-05-21T02:33:17.598Z,8.800000
2019-05-21T02:35:54.265Z,8.800000
2019-05-21T02:38:25.147Z,6.100000
2019-05-21T02:40:55.467Z,6.100000
2019-05-21T02:43:25.789Z,8.000000
2019-05-21T02:45:56.117Z,8.000000
2019-05-21T02:48:26.442Z,9.200000
2019-05-21T02:50:56.818Z,9.200000
2019-05-21T02:53:27.360Z,9.300000
2019-05-21T02:55:57.847Z,9.300000
2019-05-21T02:58:28.233Z,6.300000
2019-05-21T03:00:58.920Z,6.300000
2019-05-21T03:03:29.300Z,8.300000
2019-05-21T03:06:13.164Z,8.300000
2019-05-21T03:08:43.933Z,10.300000
2019-05-21T03:11:14.364Z,10.300000
2019-05-21T03:13:44.793Z,12.600000
2019-05-21T03:16:15.103Z,12.600000
2019-05-21T03:18:45.516Z,11.100000
2019-05-21T03:21:15.886Z,11.100000
2019-05-21T03:23:46.284Z,11.300000
2019-05-21T03:26:16.927Z,11.300000
2019-05-21T03:28:47.334Z,11.400000
2019-05-21T03:31:17.661Z,11.400000
2019-05-21T03:33:48.011Z,8.400000
2019-05-21T03:36:32.793Z,8.400000
2019-05-21T03:39:03.991Z,11.700000
2019-05-21T03:41:34.291Z,12.400000
2019-05-21T03:44:04.611Z,12.400000
2019-05-21T03:46:34.929Z,10.400000
2019-05-21T03:49:06.798Z,10.400000
2019-05-21T03:51:37.155Z,8.300000
2019-05-21T03:54:07.548Z,8.300000
2019-05-21T03:56:37.955Z,10.700000
2019-05-21T03:59:08.294Z,10.700000
2019-05-21T04:01:38.600Z,10.600000
2019-05-21T04:04:09.038Z,10.600000
2019-05-21T04:06:51.496Z,9.300000
2019-05-21T04:09:23.019Z,9.300000
2019-05-21T04:11:53.716Z,7.000000
2019-05-21T04:14:24.139Z,7.000000
2019-05-21T04:16:54.662Z,9.700000
2019-05-21T04:19:24.991Z,9.700000
2019-05-21T04:21:56.638Z,8.000000
2019-05-21T04:24:27.002Z,8.000000
2019-05-21T04:26:57.435Z,8.100000
2019-05-21T04:29:27.853Z,8.100000
2019-05-21T04:31:58.161Z,9.500000
2019-05-21T04:34:28.454Z,9.500000
2019-05-21T04:37:09.835Z,12.100000
2019-05-21T04:39:42.030Z,12.100000
2019-05-21T04:42:12.456Z,11.100000
2019-05-21T04:44:42.986Z,11.100000
2019-05-21T04:47:13.431Z,11.700000
2019-05-21T04:49:43.923Z,11.700000
2019-05-21T04:52:14.473Z,11.700000
2019-05-21T04:54:44.884Z,11.700000
2019-05-21T04:57:15.276Z,9.600000
2019-05-21T04:59:45.680Z,9.600000
2019-05-21T05:02:16.012Z,10.200000
2019-05-21T05:04:46.432Z,10.200000
2019-05-21T05:07:27.675Z,8.900000
2019-05-21T05:09:59.284Z,8.900000
2019-05-21T05:12:30.004Z,11.800000
2019-05-21T05:15:00.411Z,11.800000
2019-05-21T05:17:30.848Z,12.700000
2019-05-21T05:20:01.120Z,12.700000
2019-05-21T05:22:31.767Z,11.500000
2019-05-21T05:25:02.283Z,11.500000
2019-05-21T05:27:37.688Z,13.400000
2019-05-21T05:30:08.044Z,13.400000
2019-05-21T05:32:38.395Z,11.900000
2019-05-21T05:35:08.785Z,11.900000
2019-05-21T05:37:43.943Z,14.500000
2019-05-21T05:40:15.075Z,14.500000
2019-05-21T05:42:45.515Z,14.400000
2019-05-21T05:45:15.860Z,14.400000
2019-05-21T05:47:46.140Z,12.500000
2019-05-21T05:50:21.582Z,12.500000
2019-05-21T05:52:57.024Z,11.400000
2019-05-21T05:55:27.345Z,11.400000
2019-05-21T05:57:57.920Z,12.800000
2019-05-21T06:00:28.168Z,12.800000
2019-05-21T06:02:58.623Z,16.000000
2019-05-21T06:05:28.986Z,16.000000
2019-05-21T06:08:00.377Z,12.800000
2019-05-21T06:10:30.926Z,12.800000
2019-05-21T06:13:01.351Z,13.700000
2019-05-21T06:15:31.764Z,13.700000
2019-05-21T06:18:02.093Z,13.400000
2019-05-21T06:20:32.599Z,13.400000
2019-05-21T06:23:02.911Z,12.800000
2019-05-21T06:25:33.455Z,12.800000
2019-05-21T06:28:03.770Z,15.600000
2019-05-21T06:30:34.187Z,15.600000
2019-05-21T06:33:04.587Z,14.100000
2019-05-21T06:35:34.897Z,14.100000
2019-05-21T06:38:17.140Z,14.900000
2019-05-21T06:40:48.832Z,14.900000
2019-05-21T06:43:19.154Z,15.700000
2019-05-21T06:45:49.392Z,15.700000
2019-05-21T06:48:19.812Z,15.700000
2019-05-21T06:50:50.246Z,14.400000
2019-05-21T06:53:20.669Z,14.400000
2019-05-21T06:55:51.132Z,12.800000
2019-05-21T06:58:21.535Z,12.800000
2019-05-21T07:00:51.768Z,15.300000
2019-05-21T07:03:22.095Z,15.300000
2019-05-21T07:05:58.727Z,14.600000
2019-05-21T07:08:34.646Z,14.600000
2019-05-21T07:11:05.643Z,13.200000
2019-05-21T07:13:36.067Z,13.200000
2019-05-21T07:16:06.335Z,13.400000
2019-05-21T07:18:36.731Z,13.400000
2019-05-21T07:21:07.025Z,14.500000
2019-05-21T07:23:37.453Z,14.500000
2019-05-21T07:26:07.888Z,10.800000
2019-05-21T07:28:38.248Z,10.800000
2019-05-21T07:31:08.650Z,20.900000
2019-05-21T07:33:39.113Z,20.900000
2019-05-21T07:36:09.512Z,15.200000
2019-05-21T07:38:52.665Z,15.200000
2019-05-21T07:41:24.077Z,16.300000
2019-05-21T07:43:54.486Z,16.300000
2019-05-21T07:46:24.900Z,17.700000
2019-05-21T07:48:55.283Z,17.700000
2019-05-21T07:51:25.685Z,13.800000
2019-05-21T07:53:56.823Z,13.800000
2019-05-21T07:56:27.334Z,12.700000
2019-05-21T07:58:57.783Z,12.700000
2019-05-21T08:01:28.120Z,15.800000
2019-05-21T08:03:58.444Z,15.800000
2019-05-21T08:06:28.748Z,12.800000
2019-05-21T08:09:12.390Z,12.800000
2019-05-21T08:11:46.593Z,11.800000
2019-05-21T08:14:17.466Z,11.800000
2019-05-21T08:16:47.910Z,12.000000
2019-05-21T08:19:18.148Z,12.000000
2019-05-21T08:21:48.596Z,10.000000
2019-05-21T08:24:19.065Z,10.000000
2019-05-21T08:26:49.313Z,10.600000
2019-05-21T08:29:19.727Z,10.600000
2019-05-21T08:31:50.080Z,11.200000
2019-05-21T08:34:20.640Z,11.200000
2019-05-21T08:36:51.100Z,11.400000
2019-05-21T08:39:28.923Z,11.400000
2019-05-21T08:41:59.810Z,9.400000
2019-05-21T08:44:30.295Z,9.400000
2019-05-21T08:47:00.646Z,11.400000
2019-05-21T08:49:31.195Z,11.400000
2019-05-21T08:52:01.547Z,13.300000
2019-05-21T08:54:31.799Z,13.300000
2019-05-21T08:57:02.402Z,12.200000
2019-05-21T08:59:32.917Z,12.200000
2019-05-21T09:02:04.031Z,11.900000
2019-05-21T09:04:45.800Z,11.900000
2019-05-21T09:07:16.933Z,13.700000
2019-05-21T09:09:50.446Z,13.700000
2019-05-21T09:12:21.852Z,11.200000
2019-05-21T09:14:52.200Z,11.200000
2019-05-21T09:17:22.972Z,10.200000
2019-05-21T09:19:53.314Z,10.200000
2019-05-21T09:22:23.688Z,9.800000
2019-05-21T09:24:54.063Z,9.800000
2019-05-21T09:27:24.322Z,14.200000
2019-05-21T09:29:54.761Z,14.200000
2019-05-21T09:32:24.984Z,12.200000
2019-05-21T09:34:55.342Z,12.200000
2019-05-21T09:37:25.744Z,9.600000
2019-05-21T09:39:56.081Z,9.600000
2019-05-21T09:42:26.471Z,12.700000
2019-05-21T09:44:57.047Z,12.700000
2019-05-21T09:47:27.454Z,12.700000
2019-05-21T09:49:57.824Z,12.700000
2019-05-21T09:52:28.230Z,10.900000
2019-05-21T09:54:58.703Z,10.900000
2019-05-21T09:57:28.961Z,11.400000
2019-05-21T09:59:59.337Z,11.400000
2019-05-21T10:02:29.640Z,11.000000
2019-05-21T10:05:00.038Z,11.000000
2019-05-21T10:07:40.017Z,10.100000
2019-05-21T10:10:11.001Z,10.100000
2019-05-21T10:12:41.284Z,10.900000
2019-05-21T10:15:11.562Z,12.200000
2019-05-21T10:17:41.945Z,12.200000
2019-05-21T10:20:12.375Z,10.300000
2019-05-21T10:22:44.869Z,10.300000
2019-05-21T10:25:15.971Z,8.200000
2019-05-21T10:27:46.531Z,8.200000
2019-05-21T10:30:16.831Z,8.600000
2019-05-21T10:32:47.222Z,8.600000
2019-05-21T10:35:17.697Z,8.600000
2019-05-21T10:37:55.129Z,8.600000
2019-05-21T10:40:25.997Z,9.500000
2019-05-21T10:42:56.383Z,9.500000
2019-05-21T10:45:26.867Z,8.400000
2019-05-21T10:47:57.152Z,8.400000
2019-05-21T10:50:27.452Z,8.300000
2019-05-21T10:52:57.830Z,8.300000
2019-05-21T10:55:28.142Z,9.800000
2019-05-21T10:57:58.454Z,9.800000
2019-05-21T11:00:28.838Z,7.600000
2019-05-21T11:02:59.202Z,7.600000
2019-05-21T11:05:29.603Z,7.800000
2019-05-21T11:08:22.123Z,7.800000
2019-05-21T11:10:53.696Z,13.400000
2019-05-21T11:13:24.094Z,13.400000
2019-05-21T11:15:54.589Z,10.300000
2019-05-21T11:18:25.155Z,10.300000
2019-05-21T11:20:55.550Z,10.800000
2019-05-21T11:23:25.927Z,10.800000
2019-05-21T11:25:56.209Z,8.200000
2019-05-21T11:28:26.611Z,8.200000
2019-05-21T11:30:56.992Z,9.200000
2019-05-21T11:33:27.395Z,9.200000
2019-05-21T11:35:57.774Z,11.700000
2019-05-21T11:38:39.486Z,11.700000
2019-05-21T11:41:10.608Z,9.900000
2019-05-21T11:43:41.039Z,9.900000
2019-05-21T11:46:11.437Z,12.100000
2019-05-21T11:48:41.893Z,12.100000
2019-05-21T11:51:12.948Z,13.100000
2019-05-21T11:53:43.503Z,13.100000
2019-05-21T11:56:13.895Z,12.100000
2019-05-21T11:58:44.307Z,12.100000
2019-05-21T12:01:15.272Z,11.300000
2019-05-21T12:03:45.646Z,11.300000
2019-05-21T12:06:16.144Z,12.000000
2019-05-21T12:08:56.218Z,12.000000
2019-05-21T12:11:27.388Z,14.600000
2019-05-21T12:13:58.053Z,14.600000
2019-05-21T12:16:28.349Z,13.100000
2019-05-21T12:18:58.658Z,13.100000
2019-05-21T12:21:29.086Z,11.300000
2019-05-21T12:23:59.418Z,11.300000
2019-05-21T12:26:29.825Z,10.600000
2019-05-21T12:29:00.179Z,10.600000
2019-05-21T12:31:30.619Z,10.600000
2019-05-21T12:34:01.161Z,10.600000
2019-05-21T12:36:31.513Z,7.400000
2019-05-21T12:39:13.654Z,7.400000
2019-05-21T12:41:46.777Z,7.300000
2019-05-21T12:44:19.102Z,7.300000
2019-05-21T12:46:51.357Z,9.200000
2019-05-21T12:49:23.387Z,9.200000
2019-05-21T12:51:54.326Z,9.600000
2019-05-21T12:54:25.609Z,9.600000
2019-05-21T12:56:56.854Z,9.500000
2019-05-21T12:59:29.256Z,9.500000
2019-05-21T13:02:02.762Z,9.000000
2019-05-21T13:04:34.907Z,9.000000
2019-05-21T13:07:06.101Z,10.100000
2019-05-21T13:09:37.630Z,10.100000
2019-05-21T13:12:09.453Z,11.300000
2019-05-21T13:14:41.590Z,11.300000
2019-05-21T13:17:12.406Z,8.100000
2019-05-21T13:19:42.751Z,10.700000
2019-05-21T13:22:13.177Z,10.700000
2019-05-21T13:24:43.648Z,12.300000
2019-05-21T13:27:14.008Z,12.300000
2019-05-21T13:29:44.420Z,10.100000
2019-05-21T13:32:14.897Z,10.100000
2019-05-21T13:34:45.384Z,10.300000
2019-05-21T13:37:15.695Z,10.300000
2019-05-21T13:39:50.058Z,10.600000
2019-05-21T13:42:21.311Z,10.600000
2019-05-21T13:44:51.773Z,10.000000
2019-05-21T13:47:22.101Z,10.000000
2019-05-21T13:49:52.477Z,11.700000
2019-05-21T13:52:22.942Z,11.700000
2019-05-21T13:54:53.256Z,11.100000
2019-05-21T13:57:23.674Z,11.100000
2019-05-21T13:59:54.159Z,11.500000
2019-05-21T14:02:24.577Z,11.500000
2019-05-21T14:04:55.020Z,11.500000
2019-05-21T14:07:30.544Z,11.500000
2019-05-21T14:10:17.149Z,9.100000
2019-05-21T14:12:49.359Z,9.100000
2019-05-21T14:15:19.761Z,8.500000
2019-05-21T14:17:50.454Z,8.500000
2019-05-21T14:20:21.026Z,9.600000
2019-05-21T14:22:51.341Z,9.600000
2019-05-21T14:25:21.733Z,7.500000
2019-05-21T14:27:52.029Z,7.500000
2019-05-21T14:30:27.524Z,11.200000
2019-05-21T14:32:57.887Z,11.200000
2019-05-21T14:35:28.458Z,9.100000
2019-05-21T14:37:58.832Z,9.100000
2019-05-21T14:40:32.177Z,7.800000
2019-05-21T14:43:03.092Z,7.800000
2019-05-21T14:45:34.546Z,9.000000
2019-05-21T14:48:05.104Z,9.000000
2019-05-21T14:50:35.487Z,8.400000
2019-05-21T14:53:05.860Z,8.400000
2019-05-21T14:55:36.139Z,11.000000
2019-05-21T14:58:06.643Z,11.000000
2019-05-21T15:00:37.006Z,13.000000
2019-05-21T15:03:07.376Z,13.000000
2019-05-21T15:05:37.768Z,9.600000
2019-05-21T15:08:08.150Z,9.600000
2019-05-21T15:10:47.988Z,11.100000
2019-05-21T15:13:19.603Z,11.100000
2019-05-21T15:15:49.966Z,8.900000
2019-05-21T15:18:22.356Z,8.900000
2019-05-21T15:20:52.934Z,13.300000
2019-05-21T15:23:23.324Z,13.300000
2019-05-21T15:25:54.003Z,11.600000
2019-05-21T15:28:24.315Z,11.600000
2019-05-21T15:30:54.944Z,11.700000
2019-05-21T15:33:25.376Z,11.700000
2019-05-21T15:35:56.920Z,13.400000
2019-05-21T15:38:27.405Z,13.400000
2019-05-21T15:41:09.446Z,9.300000
2019-05-21T15:43:40.744Z,9.300000
2019-05-21T15:46:11.081Z,12.800000
2019-05-21T15:48:41.605Z,12.800000
2019-05-21T15:51:12.125Z,12.400000
2019-05-21T15:53:42.751Z,12.400000
2019-05-21T15:56:13.155Z,10.600000
2019-05-21T15:58:43.715Z,10.600000
2019-05-21T16:01:14.106Z,11.000000
2019-05-21T16:03:44.586Z,11.000000
2019-05-21T16:06:14.951Z,12.900000
2019-05-21T16:08:45.517Z,12.900000
2019-05-21T16:11:27.885Z,13.800000
2019-05-21T16:13:59.260Z,13.800000
2019-05-21T16:16:29.732Z,16.100000
2019-05-21T16:19:00.173Z,16.100000
2019-05-21T16:21:30.626Z,12.500000
2019-05-21T16:24:00.976Z,12.500000
2019-05-21T16:26:31.428Z,12.100000
2019-05-21T16:29:01.954Z,12.100000
2019-05-21T16:31:32.297Z,11.900000
2019-05-21T16:34:02.662Z,11.900000
2019-05-21T16:36:33.479Z,15.100000
2019-05-21T16:39:03.999Z,15.100000
2019-05-21T16:41:44.389Z,17.900000
2019-05-21T16:44:15.471Z,15.200000
2019-05-21T16:46:45.794Z,15.200000
2019-05-21T16:49:16.368Z,13.300000
2019-05-21T16:51:46.725Z,13.300000
2019-05-21T16:54:17.079Z,14.100000
2019-05-21T16:56:47.355Z,14.100000
2019-05-21T16:59:17.701Z,16.300000
2019-05-21T17:01:48.056Z,16.300000
2019-05-21T17:04:18.504Z,15.000000
2019-05-21T17:06:48.882Z,15.000000
2019-05-21T17:09:19.381Z,15.700000
2019-05-21T17:11:59.624Z,15.700000
2019-05-21T17:14:30.876Z,13.500000
2019-05-21T17:17:01.332Z,13.500000
2019-05-21T17:19:31.681Z,12.700000
2019-05-21T17:22:02.015Z,12.700000
2019-05-21T17:24:32.375Z,17.400000
2019-05-21T17:27:02.795Z,17.400000
2019-05-21T17:29:33.225Z,14.800000
2019-05-21T17:32:06.441Z,14.800000
2019-05-21T17:34:37.120Z,13.500000
2019-05-21T17:37:07.446Z,13.500000
2019-05-21T17:39:37.884Z,11.000000
2019-05-21T17:42:15.695Z,11.000000
2019-05-21T17:44:46.407Z,16.000000
2019-05-21T17:47:17.163Z,16.000000
2019-05-21T17:49:47.518Z,12.400000
2019-05-21T17:52:17.859Z,12.400000
2019-05-21T17:54:56.719Z,12.400000
2019-05-21T17:57:27.644Z,12.400000
2019-05-21T17:59:57.996Z,16.700000
2019-05-21T18:02:28.334Z,16.700000
2019-05-21T18:04:58.746Z,12.800000
2019-05-21T18:07:29.192Z,12.800000
2019-05-21T18:09:59.526Z,15.800000
2019-05-21T18:12:31.921Z,15.800000
2019-05-21T18:15:02.903Z,15.200000
2019-05-21T18:17:33.320Z,15.200000
2019-05-21T18:20:03.660Z,14.800000
2019-05-21T18:22:34.108Z,14.800000
2019-05-21T18:25:04.826Z,13.300000
2019-05-21T18:27:35.335Z,13.300000
2019-05-21T18:30:05.765Z,14.600000
2019-05-21T18:32:36.123Z,14.600000
2019-05-21T18:35:06.478Z,16.900000
2019-05-21T18:37:36.804Z,16.900000
2019-05-21T18:40:07.017Z,12.100000
2019-05-21T18:42:37.448Z,12.100000
2019-05-21T18:45:08.434Z,14.800000
2019-05-21T18:47:38.811Z,14.800000
2019-05-21T18:50:09.231Z,12.100000
2019-05-21T18:52:39.679Z,12.100000
2019-05-21T18:55:10.197Z,15.600000
2019-05-21T18:57:41.473Z,15.600000
2019-05-21T19:00:11.773Z,13.100000
2019-05-21T19:02:42.133Z,13.100000
2019-05-21T19:05:12.640Z,14.500000
2019-05-21T19:07:43.130Z,14.500000
2019-05-21T19:10:13.561Z,12.500000
2019-05-21T19:12:44.087Z,12.500000
2019-05-21T19:15:14.490Z,14.600000
2019-05-21T19:17:45.347Z,14.600000
2019-05-21T19:20:15.754Z,14.200000
2019-05-21T19:22:46.159Z,14.200000
2019-05-21T19:25:16.580Z,12.600000
2019-05-21T19:27:47.318Z,12.600000
2019-05-21T19:30:17.838Z,15.900000
2019-05-21T19:32:48.319Z,15.900000
2019-05-21T19:35:18.796Z,14.900000
2019-05-21T19:37:49.564Z,14.900000
2019-05-21T19:40:20.070Z,16.200000
2019-05-21T19:42:54.759Z,16.200000
2019-05-21T19:45:26.120Z,18.800000
2019-05-21T19:47:56.643Z,18.800000
2019-05-21T19:50:27.048Z,14.800000
2019-05-21T19:52:57.373Z,14.800000
2019-05-21T19:55:27.768Z,15.800000
2019-05-21T19:57:58.195Z,15.800000
2019-05-21T20:00:28.609Z,13.600000
2019-05-21T20:02:59.000Z,13.600000
2019-05-21T20:05:29.316Z,15.200000
2019-05-21T20:07:59.811Z,15.200000
2019-05-21T20:10:30.172Z,16.600000
2019-05-21T20:13:00.479Z,16.600000
2019-05-21T20:15:30.821Z,15.600000
2019-05-21T20:18:07.292Z,15.600000
2019-05-21T20:20:38.037Z,17.200000
2019-05-21T20:23:08.694Z,17.200000
2019-05-21T20:25:53.796Z,19.300000
2019-05-21T20:28:26.736Z,16.000000
2019-05-21T20:30:57.211Z,16.000000
2019-05-21T20:33:27.594Z,13.300000
2019-05-21T20:35:58.016Z,13.300000
2019-05-21T20:38:28.488Z,14.400000
2019-05-21T20:40:58.924Z,14.400000
2019-05-21T20:43:29.444Z,15.000000
2019-05-21T20:45:59.770Z,15.000000
2019-05-21T20:48:35.187Z,13.200000
2019-05-21T20:51:05.510Z,13.200000
2019-05-21T20:53:35.899Z,12.900000
2019-05-21T20:56:06.250Z,12.900000
2019-05-21T20:58:36.684Z,13.900000
2019-05-21T21:01:06.960Z,13.900000
2019-05-21T21:03:37.289Z,10.600000
2019-05-21T21:06:07.617Z,10.600000
2019-05-21T21:08:37.946Z,12.300000
2019-05-21T21:11:08.273Z,12.300000
2019-05-21T21:13:38.770Z,12.100000
2019-05-21T21:16:09.817Z,12.100000
2019-05-21T21:18:40.493Z,10.200000
2019-05-21T21:21:10.884Z,10.200000
2019-05-21T21:23:41.202Z,10.000000
2019-05-21T21:26:11.631Z,10.000000
2019-05-21T21:28:42.015Z,8.900000
2019-05-21T21:31:12.438Z,8.900000
2019-05-21T21:33:42.829Z,9.600000
2019-05-21T21:36:13.231Z,9.600000
2019-05-21T21:38:43.629Z,7.300000
2019-05-21T21:41:13.959Z,7.300000
2019-05-21T21:43:44.365Z,7.800000
2019-05-21T21:46:14.679Z,7.800000
2019-05-21T21:48:45.719Z,6.400000
2019-05-21T21:51:16.284Z,6.400000
2019-05-21T21:53:46.595Z,4.900000
2019-05-21T21:56:16.986Z,4.900000
2019-05-21T21:58:47.396Z,5.300000
2019-05-21T22:01:17.714Z,5.300000
2019-05-21T22:03:48.022Z,4.100000
2019-05-21T22:06:18.416Z,4.100000
2019-05-21T22:08:48.717Z,5.200000
2019-05-21T22:11:19.111Z,5.200000
2019-05-21T22:13:49.671Z,4.700000
2019-05-21T22:16:20.054Z,4.700000
2019-05-21T22:18:50.383Z,3.900000
2019-05-21T22:21:25.850Z,3.900000
2019-05-21T22:24:01.193Z,4.800000
2019-05-21T22:26:31.557Z,4.800000
2019-05-21T22:29:01.955Z,3.400000
2019-05-21T22:31:32.471Z,3.400000
2019-05-21T22:34:02.884Z,3.000000
2019-05-21T22:36:33.191Z,3.000000
2019-05-21T22:39:03.498Z,4.000000
2019-05-21T22:41:34.294Z,4.000000
2019-05-21T22:44:04.675Z,2.100000
2019-05-21T22:46:34.992Z,2.100000
2019-05-21T22:49:05.269Z,2.900000
2019-05-21T22:51:35.563Z,2.900000
2019-05-21T22:54:05.755Z,2.500000
2019-05-21T22:56:37.147Z,2.500000
2019-05-21T22:59:07.864Z,4.700000
2019-05-21T23:01:38.294Z,4.700000
2019-05-21T23:04:08.668Z,4.800000
2019-05-21T23:06:38.968Z,4.800000
2019-05-21T23:09:09.293Z,3.800000
2019-05-21T23:11:39.664Z,3.800000
2019-05-21T23:14:10.143Z,6.400000
2019-05-21T23:16:40.425Z,6.400000
2019-05-21T23:19:10.728Z,4.400000
2019-05-21T23:21:41.222Z,4.400000
2019-05-21T23:24:11.525Z,5.000000
2019-05-21T23:26:41.906Z,5.000000
2019-05-21T23:29:12.213Z,2.300000
2019-05-21T23:31:42.591Z,2.300000
2019-05-21T23:34:13.007Z,3.400000
2019-05-21T23:36:43.409Z,3.400000
2019-05-21T23:39:13.794Z,5.300000
2019-05-21T23:41:44.200Z,5.300000
2019-05-21T23:44:14.583Z,3.900000
2019-05-21T23:46:44.865Z,3.900000
2019-05-21T23:49:15.265Z,2.500000
2019-05-21T23:51:45.566Z,2.500000
2019-05-21T23:54:15.847Z,2.900000
2019-05-21T23:56:46.152Z,2.900000
2019-05-21T23:59:16.373Z,3.300000
